sensor_id;sensor_type;location;lat;lon;timestamp;pressure;altitude;pressure_sealevel;temperature;humidity
66762;BME280;53672;48.176;16.338;2023-03-23T00:03:04;98728.06;;;8.94;72.81
66762;BME280;53672;48.176;16.338;2023-03-23T00:08:06;98722.75;;;8.89;72.47
66762;BME280;53672;48.176;16.338;2023-03-23T00:13:06;98720.94;;;8.79;73.11
66762;BME280;53672;48.176;16.338;2023-03-23T00:18:07;98719.38;;;8.73;72.87
66762;BME280;53672;48.176;16.338;2023-03-23T00:23:09;98709.19;;;8.65;73.65
66762;BME280;53672;48.176;16.338;2023-03-23T00:28:09;98717.03;;;8.56;74.74
66762;BME280;53672;48.176;16.338;2023-03-23T00:33:11;98712.72;;;8.60;74.07
66762;BME280;53672;48.176;16.338;2023-03-23T00:38:13;98701.72;;;8.57;75.02
66762;BME280;53672;48.176;16.338;2023-03-23T00:43:13;98707.41;;;8.50;74.33
66762;BME280;53672;48.176;16.338;2023-03-23T00:48:14;98709.88;;;8.42;74.97
66762;BME280;53672;48.176;16.338;2023-03-23T00:53:18;98709.63;;;8.38;75.54
66762;BME280;53672;48.176;16.338;2023-03-23T00:58:18;98706.44;;;8.31;75.32
66762;BME280;53672;48.176;16.338;2023-03-23T01:03:19;98705.34;;;8.27;75.41
66762;BME280;53672;48.176;16.338;2023-03-23T01:08:21;98693.28;;;8.25;75.53
66762;BME280;53672;48.176;16.338;2023-03-23T01:13:22;98695.16;;;8.19;76.59
66762;BME280;53672;48.176;16.338;2023-03-23T01:18:22;98693.03;;;8.16;77.08
66762;BME280;53672;48.176;16.338;2023-03-23T01:23:24;98691.72;;;8.13;76.57
66762;BME280;53672;48.176;16.338;2023-03-23T01:28:25;98703.00;;;8.10;76.96
66762;BME280;53672;48.176;16.338;2023-03-23T01:33:25;98702.75;;;8.07;76.46
66762;BME280;53672;48.176;16.338;2023-03-23T01:38:27;98695.00;;;8.00;78.05
66762;BME280;53672;48.176;16.338;2023-03-23T01:43:28;98691.25;;;7.96;77.96
66762;BME280;53672;48.176;16.338;2023-03-23T01:48:31;98682.94;;;7.93;78.19
66762;BME280;53672;48.176;16.338;2023-03-23T01:53:37;98678.38;;;7.88;77.90
66762;BME280;53672;48.176;16.338;2023-03-23T01:58:38;98676.25;;;7.85;78.54
66762;BME280;53672;48.176;16.338;2023-03-23T02:03:42;98674.13;;;7.82;78.64
66762;BME280;53672;48.176;16.338;2023-03-23T02:08:48;98686.47;;;7.78;78.00
66762;BME280;53672;48.176;16.338;2023-03-23T02:13:49;98686.22;;;7.70;78.94
66762;BME280;53672;48.176;16.338;2023-03-23T02:18:58;98681.66;;;7.65;78.95
66762;BME280;53672;48.176;16.338;2023-03-23T02:24:37;98691.91;;;7.53;80.01
66762;BME280;53672;48.176;16.338;2023-03-23T02:30:14;98684.41;;;7.45;80.23
66762;BME280;53672;48.176;16.338;2023-03-23T02:35:22;98687.63;;;7.37;80.50
66762;BME280;53672;48.176;16.338;2023-03-23T02:40:26;98687.09;;;7.30;80.28
66762;BME280;53672;48.176;16.338;2023-03-23T02:45:29;98690.06;;;7.18;80.82
66762;BME280;53672;48.176;16.338;2023-03-23T02:50:33;98698.34;;;7.17;81.85
66762;BME280;53672;48.176;16.338;2023-03-23T02:55:36;98698.09;;;7.18;81.37
66762;BME280;53672;48.176;16.338;2023-03-23T03:00:39;98706.69;;;7.15;81.73
66762;BME280;53672;48.176;16.338;2023-03-23T03:05:46;98706.13;;;7.13;81.66
66762;BME280;53672;48.176;16.338;2023-03-23T03:10:51;98706.94;;;7.08;81.28
66762;BME280;53672;48.176;16.338;2023-03-23T03:15:56;98703.97;;;7.00;81.32
66762;BME280;53672;48.176;16.338;2023-03-23T03:21:02;98706.69;;;6.95;80.62
66762;BME280;53672;48.176;16.338;2023-03-23T03:26:05;98702.38;;;6.94;81.10
66762;BME280;53672;48.176;16.338;2023-03-23T03:31:06;98701.06;;;6.91;80.70
66762;BME280;53672;48.176;16.338;2023-03-23T03:36:14;98710.13;;;6.85;81.17
66762;BME280;53672;48.176;16.338;2023-03-23T03:41:17;98705.59;;;6.81;81.77
66762;BME280;53672;48.176;16.338;2023-03-23T03:46:18;98719.78;;;6.81;82.55
66762;BME280;53672;48.176;16.338;2023-03-23T03:51:20;98712.81;;;6.80;81.09
66762;BME280;53672;48.176;16.338;2023-03-23T03:56:21;98723.78;;;6.79;80.82
66762;BME280;53672;48.176;16.338;2023-03-23T04:01:22;98713.88;;;6.79;82.68
66762;BME280;53672;48.176;16.338;2023-03-23T04:06:24;98720.03;;;6.80;82.14
66762;BME280;53672;48.176;16.338;2023-03-23T04:11:24;98723.50;;;6.75;81.69
66762;BME280;53672;48.176;16.338;2023-03-23T04:16:25;98716.56;;;6.74;82.24
66762;BME280;53672;48.176;16.338;2023-03-23T04:21:27;98718.16;;;6.70;81.74
66762;BME280;53672;48.176;16.338;2023-03-23T04:26:28;98714.91;;;6.68;81.80
66762;BME280;53672;48.176;16.338;2023-03-23T04:31:29;98703.94;;;6.64;81.97
66762;BME280;53672;48.176;16.338;2023-03-23T04:36:30;98706.34;;;6.61;82.62
66762;BME280;53672;48.176;16.338;2023-03-23T04:41:31;98715.47;;;6.60;82.39
66762;BME280;53672;48.176;16.338;2023-03-23T04:46:31;98711.44;;;6.57;82.83
66762;BME280;53672;48.176;16.338;2023-03-23T04:51:33;98708.75;;;6.52;82.31
66762;BME280;53672;48.176;16.338;2023-03-23T04:56:34;98717.31;;;6.54;83.84
66762;BME280;53672;48.176;16.338;2023-03-23T05:01:34;98717.06;;;6.56;83.06
66762;BME280;53672;48.176;16.338;2023-03-23T05:06:36;98717.84;;;6.56;83.23
66762;BME280;53672;48.176;16.338;2023-03-23T05:11:37;98717.59;;;6.58;82.87
66762;BME280;53672;48.176;16.338;2023-03-23T05:16:37;98732.59;;;6.69;82.66
66762;BME280;53672;48.176;16.338;2023-03-23T05:21:39;98738.00;;;6.84;82.91
66762;BME280;53672;48.176;16.338;2023-03-23T05:26:39;98740.16;;;6.97;80.69
66762;BME280;53672;48.176;16.338;2023-03-23T05:31:40;98750.59;;;7.09;79.77
66762;BME280;53672;48.176;16.338;2023-03-23T05:36:42;98758.66;;;7.24;80.69
66762;BME280;53672;48.176;16.338;2023-03-23T05:41:42;98762.41;;;7.43;79.71
66762;BME280;53672;48.176;16.338;2023-03-23T05:46:43;98761.59;;;7.73;78.14
66762;BME280;53672;48.176;16.338;2023-03-23T05:51:45;98764.19;;;8.13;78.24
66762;BME280;53672;48.176;16.338;2023-03-23T05:56:45;98763.88;;;8.35;77.32
66762;BME280;53672;48.176;16.338;2023-03-23T06:01:46;98772.34;;;8.57;76.09
66762;BME280;53672;48.176;16.338;2023-03-23T06:06:48;98775.00;;;8.68;75.50
66762;BME280;53672;48.176;16.338;2023-03-23T06:11:48;98775.75;;;8.78;74.94
66762;BME280;53672;48.176;16.338;2023-03-23T06:16:49;98779.94;;;8.94;74.01
66762;BME280;53672;48.176;16.338;2023-03-23T06:21:51;98782.25;;;9.11;73.38
66762;BME280;53672;48.176;16.338;2023-03-23T06:26:51;98787.75;;;9.35;72.59
66762;BME280;53672;48.176;16.338;2023-03-23T06:31:55;98785.66;;;9.60;71.34
66762;BME280;53672;48.176;16.338;2023-03-23T06:36:58;98780.88;;;10.10;69.54
66762;BME280;53672;48.176;16.338;2023-03-23T06:41:59;98782.59;;;10.72;67.45
66762;BME280;53672;48.176;16.338;2023-03-23T06:46:59;98780.88;;;11.18;65.03
66762;BME280;53672;48.176;16.338;2023-03-23T06:52:01;98778.66;;;11.20;63.89
66762;BME280;53672;48.176;16.338;2023-03-23T06:57:02;98786.72;;;11.58;63.33
66762;BME280;53672;48.176;16.338;2023-03-23T07:02:03;98796.47;;;12.05;61.31
66762;BME280;53672;48.176;16.338;2023-03-23T07:07:05;98792.44;;;12.02;60.72
66762;BME280;53672;48.176;16.338;2023-03-23T07:12:05;98785.78;;;12.13;60.45
66762;BME280;53672;48.176;16.338;2023-03-23T07:17:06;98804.66;;;12.00;60.70
66762;BME280;53672;48.176;16.338;2023-03-23T07:22:08;98797.66;;;12.12;61.13
66762;BME280;53672;48.176;16.338;2023-03-23T07:27:08;98793.06;;;12.13;61.61
66762;BME280;53672;48.176;16.338;2023-03-23T07:32:10;98803.66;;;12.09;61.29
66762;BME280;53672;48.176;16.338;2023-03-23T07:37:12;98804.38;;;12.01;61.59
66762;BME280;53672;48.176;16.338;2023-03-23T07:42:12;98812.66;;;11.91;62.03
66762;BME280;53672;48.176;16.338;2023-03-23T07:47:13;98801.50;;;12.25;61.34
66762;BME280;53672;48.176;16.338;2023-03-23T07:52:15;98800.28;;;12.72;59.95
66762;BME280;53672;48.176;16.338;2023-03-23T07:57:15;98797.41;;;13.76;56.44
66762;BME280;53672;48.176;16.338;2023-03-23T08:02:16;98804.94;;;13.88;55.88
66762;BME280;53672;48.176;16.338;2023-03-23T08:07:18;98808.47;;;14.50;54.32
66762;BME280;53672;48.176;16.338;2023-03-23T08:12:18;98796.53;;;14.51;52.89
66762;BME280;53672;48.176;16.338;2023-03-23T08:17:19;98791.56;;;15.09;51.01
66762;BME280;53672;48.176;16.338;2023-03-23T08:22:21;98797.22;;;14.65;51.87
66762;BME280;53672;48.176;16.338;2023-03-23T08:27:21;98797.75;;;14.93;51.87
66762;BME280;53672;48.176;16.338;2023-03-23T08:32:22;98809.84;;;14.87;52.16
66762;BME280;53672;48.176;16.338;2023-03-23T08:37:24;98810.06;;;14.99;51.33
66762;BME280;53672;48.176;16.338;2023-03-23T08:42:24;98805.56;;;14.94;51.27
66762;BME280;53672;48.176;16.338;2023-03-23T08:47:25;98805.19;;;16.24;47.97
66762;BME280;53672;48.176;16.338;2023-03-23T08:52:27;98825.25;;;19.57;40.64
66762;BME280;53672;48.176;16.338;2023-03-23T08:57:27;98819.19;;;22.51;35.02
66762;BME280;53672;48.176;16.338;2023-03-23T09:02:28;98830.25;;;25.03;30.17
66762;BME280;53672;48.176;16.338;2023-03-23T09:07:30;98813.72;;;24.19;31.05
66762;BME280;53672;48.176;16.338;2023-03-23T09:12:30;98813.75;;;23.52;32.51
66762;BME280;53672;48.176;16.338;2023-03-23T09:17:31;98814.16;;;27.72;25.95
66762;BME280;53672;48.176;16.338;2023-03-23T09:22:33;98811.56;;;26.73;25.95
66762;BME280;53672;48.176;16.338;2023-03-23T09:27:33;98825.38;;;29.64;23.83
66762;BME280;53672;48.176;16.338;2023-03-23T09:32:34;98826.19;;;31.25;21.41
66762;BME280;53672;48.176;16.338;2023-03-23T09:37:37;98817.31;;;29.39;23.33
66762;BME280;53672;48.176;16.338;2023-03-23T09:42:45;98814.81;;;29.14;23.28
66762;BME280;53672;48.176;16.338;2023-03-23T09:48:02;98819.38;;;29.69;22.67
66762;BME280;53672;48.176;16.338;2023-03-23T09:53:11;98809.78;;;31.50;19.91
66762;BME280;53672;48.176;16.338;2023-03-23T09:58:17;98801.06;;;31.29;20.19
66762;BME280;53672;48.176;16.338;2023-03-23T10:03:26;98792.50;;;27.46;24.71
66762;BME280;53672;48.176;16.338;2023-03-23T10:08:30;98795.78;;;29.84;21.83
66762;BME280;53672;48.176;16.338;2023-03-23T10:13:45;98792.41;;;30.77;21.39
66762;BME280;53672;48.176;16.338;2023-03-23T10:18:52;98790.00;;;31.45;21.22
66762;BME280;53672;48.176;16.338;2023-03-23T10:23:59;98786.66;;;32.29;19.95
66762;BME280;53672;48.176;16.338;2023-03-23T10:29:08;98774.16;;;31.61;20.39
66762;BME280;53672;48.176;16.338;2023-03-23T10:34:15;98769.19;;;28.75;23.75
66762;BME280;53672;48.176;16.338;2023-03-23T10:39:20;98765.09;;;28.38;24.39
66762;BME280;53672;48.176;16.338;2023-03-23T10:44:23;98754.44;;;31.33;21.30
66762;BME280;53672;48.176;16.338;2023-03-23T10:49:27;98751.75;;;25.66;28.10
66762;BME280;53672;48.176;16.338;2023-03-23T10:54:36;98749.25;;;23.87;30.58
66762;BME280;53672;48.176;16.338;2023-03-23T10:59:39;98740.97;;;27.73;26.07
66762;BME280;53672;48.176;16.338;2023-03-23T11:04:45;98739.09;;;28.73;23.84
66762;BME280;53672;48.176;16.338;2023-03-23T11:09:54;98743.41;;;34.09;17.52
66762;BME280;53672;48.176;16.338;2023-03-23T11:15:09;98746.72;;;32.32;19.21
66762;BME280;53672;48.176;16.338;2023-03-23T11:20:19;98742.56;;;30.86;20.96
66762;BME280;53672;48.176;16.338;2023-03-23T11:25:21;98729.09;;;28.79;23.08
66762;BME280;53672;48.176;16.338;2023-03-23T11:30:25;98727.94;;;29.78;21.53
66762;BME280;53672;48.176;16.338;2023-03-23T11:35:27;98716.72;;;24.94;27.92
66762;BME280;53672;48.176;16.338;2023-03-23T11:40:31;98717.78;;;22.91;31.16
66762;BME280;53672;48.176;16.338;2023-03-23T11:45:34;98713.13;;;24.36;29.39
66762;BME280;53672;48.176;16.338;2023-03-23T11:50:45;98704.72;;;24.65;29.68
66762;BME280;53672;48.176;16.338;2023-03-23T11:55:57;98706.44;;;22.17;32.81
66762;BME280;53672;48.176;16.338;2023-03-23T12:01:05;98696.00;;;21.81;33.65
66762;BME280;53672;48.176;16.338;2023-03-23T12:06:08;98688.03;;;21.34;33.58
66762;BME280;53672;48.176;16.338;2023-03-23T12:11:17;98678.03;;;21.64;33.92
66762;BME280;53672;48.176;16.338;2023-03-23T12:16:37;98677.16;;;21.38;35.07
66762;BME280;53672;48.176;16.338;2023-03-23T12:21:45;98679.38;;;21.93;34.11
66762;BME280;53672;48.176;16.338;2023-03-23T12:26:54;98679.88;;;20.99;35.52
66762;BME280;53672;48.176;16.338;2023-03-23T12:32:17;98675.59;;;22.01;33.51
66762;BME280;53672;48.176;16.338;2023-03-23T12:37:33;98669.25;;;22.72;33.23
66762;BME280;53672;48.176;16.338;2023-03-23T12:42:43;98665.38;;;22.51;32.86
66762;BME280;53672;48.176;16.338;2023-03-23T12:47:51;98668.28;;;22.35;33.32
66762;BME280;53672;48.176;16.338;2023-03-23T12:52:57;98665.44;;;21.83;34.02
66762;BME280;53672;48.176;16.338;2023-03-23T12:58:02;98655.69;;;21.62;34.84
66762;BME280;53672;48.176;16.338;2023-03-23T13:03:10;98646.78;;;21.69;34.88
66762;BME280;53672;48.176;16.338;2023-03-23T13:08:16;98643.50;;;22.58;33.85
66762;BME280;53672;48.176;16.338;2023-03-23T13:13:23;98642.56;;;21.75;34.94
66762;BME280;53672;48.176;16.338;2023-03-23T13:18:31;98638.63;;;21.95;34.72
66762;BME280;53672;48.176;16.338;2023-03-23T13:23:39;98635.81;;;22.41;33.62
66762;BME280;53672;48.176;16.338;2023-03-23T13:28:51;98634.34;;;22.73;33.34
66762;BME280;53672;48.176;16.338;2023-03-23T13:34:00;98626.44;;;23.01;30.94
66762;BME280;53672;48.176;16.338;2023-03-23T13:39:06;98622.44;;;23.29;30.79
66762;BME280;53672;48.176;16.338;2023-03-23T13:44:23;98619.59;;;22.88;30.81
66762;BME280;53672;48.176;16.338;2023-03-23T13:49:24;98607.88;;;22.65;32.01
66762;BME280;53672;48.176;16.338;2023-03-23T13:54:30;98601.13;;;21.80;34.17
66762;BME280;53672;48.176;16.338;2023-03-23T13:59:35;98603.91;;;22.06;34.36
66762;BME280;53672;48.176;16.338;2023-03-23T14:04:35;98600.16;;;21.92;34.66
66762;BME280;53672;48.176;16.338;2023-03-23T14:09:39;98599.81;;;21.29;35.00
66762;BME280;53672;48.176;16.338;2023-03-23T14:14:43;98592.06;;;20.92;35.93
66762;BME280;53672;48.176;16.338;2023-03-23T14:19:48;98597.56;;;21.34;35.50
66762;BME280;53672;48.176;16.338;2023-03-23T14:24:49;98602.75;;;21.62;35.51
66762;BME280;53672;48.176;16.338;2023-03-23T14:29:59;98603.38;;;21.74;34.61
66762;BME280;53672;48.176;16.338;2023-03-23T14:35:04;98599.22;;;21.84;33.63
66762;BME280;53672;48.176;16.338;2023-03-23T14:40:12;98607.72;;;21.98;32.40
66762;BME280;53672;48.176;16.338;2023-03-23T14:45:18;98604.72;;;21.84;31.62
66762;BME280;53672;48.176;16.338;2023-03-23T14:50:25;98597.28;;;21.85;31.99
66762;BME280;53672;48.176;16.338;2023-03-23T14:55:26;98590.09;;;21.54;31.64
66762;BME280;53672;48.176;16.338;2023-03-23T15:00:32;98588.84;;;21.29;32.36
66762;BME280;53672;48.176;16.338;2023-03-23T15:05:34;98593.47;;;21.24;31.94
66762;BME280;53672;48.176;16.338;2023-03-23T15:10:37;98592.75;;;21.28;32.74
66762;BME280;53672;48.176;16.338;2023-03-23T15:15:40;98594.28;;;21.25;32.16
66762;BME280;53672;48.176;16.338;2023-03-23T15:20:47;98588.19;;;21.12;32.40
66762;BME280;53672;48.176;16.338;2023-03-23T15:25:49;98584.69;;;20.96;33.45
66762;BME280;53672;48.176;16.338;2023-03-23T15:30:53;98590.00;;;21.08;33.81
66762;BME280;53672;48.176;16.338;2023-03-23T15:35:55;98596.44;;;20.97;33.01
66762;BME280;53672;48.176;16.338;2023-03-23T15:40:58;98591.91;;;20.85;32.36
66762;BME280;53672;48.176;16.338;2023-03-23T15:46:01;98585.28;;;20.67;34.66
66762;BME280;53672;48.176;16.338;2023-03-23T15:51:03;98591.66;;;20.55;35.08
66762;BME280;53672;48.176;16.338;2023-03-23T15:56:06;98589.94;;;20.47;35.88
66762;BME280;53672;48.176;16.338;2023-03-23T16:01:11;98579.00;;;20.47;35.60
66762;BME280;53672;48.176;16.338;2023-03-23T16:06:13;98585.13;;;20.25;35.90
66762;BME280;53672;48.176;16.338;2023-03-23T16:11:16;98591.16;;;20.15;35.99
66762;BME280;53672;48.176;16.338;2023-03-23T16:16:21;98594.25;;;19.98;36.53
66762;BME280;53672;48.176;16.338;2023-03-23T16:21:22;98595.59;;;19.88;37.17
66762;BME280;53672;48.176;16.338;2023-03-23T16:26:23;98598.50;;;19.80;36.54
66762;BME280;53672;48.176;16.338;2023-03-23T16:31:25;98592.25;;;19.63;36.77
66762;BME280;53672;48.176;16.338;2023-03-23T16:36:26;98602.56;;;19.54;37.50
66762;BME280;53672;48.176;16.338;2023-03-23T16:41:27;98609.00;;;19.46;37.98
66762;BME280;53672;48.176;16.338;2023-03-23T16:46:29;98613.16;;;19.28;38.71
66762;BME280;53672;48.176;16.338;2023-03-23T16:51:29;98614.56;;;19.22;39.23
66762;BME280;53672;48.176;16.338;2023-03-23T16:56:30;98616.16;;;19.07;39.86
66762;BME280;53672;48.176;16.338;2023-03-23T17:01:32;98622.56;;;18.87;40.91
66762;BME280;53672;48.176;16.338;2023-03-23T17:06:32;98624.22;;;18.76;41.23
66762;BME280;53672;48.176;16.338;2023-03-23T17:11:33;98627.75;;;18.77;41.53
66762;BME280;53672;48.176;16.338;2023-03-23T17:16:34;98639.28;;;18.58;41.73
66762;BME280;53672;48.176;16.338;2023-03-23T17:21:35;98638.72;;;18.40;42.65
66762;BME280;53672;48.176;16.338;2023-03-23T17:26:36;98622.69;;;18.27;42.97
66762;BME280;53672;48.176;16.338;2023-03-23T17:31:38;98632.94;;;18.17;43.59
66762;BME280;53672;48.176;16.338;2023-03-23T17:36:39;98628.75;;;18.08;44.05
66762;BME280;53672;48.176;16.338;2023-03-23T17:41:39;98637.94;;;17.91;44.76
66762;BME280;53672;48.176;16.338;2023-03-23T17:46:41;98634.53;;;17.82;45.24
66762;BME280;53672;48.176;16.338;2023-03-23T17:51:42;98638.81;;;17.59;45.91
66762;BME280;53672;48.176;16.338;2023-03-23T17:56:43;98643.31;;;17.55;45.73
66762;BME280;53672;48.176;16.338;2023-03-23T18:01:45;98651.34;;;17.39;46.26
66762;BME280;53672;48.176;16.338;2023-03-23T18:06:46;98648.94;;;17.26;46.71
66762;BME280;53672;48.176;16.338;2023-03-23T18:11:47;98649.81;;;17.17;46.85
66762;BME280;53672;48.176;16.338;2023-03-23T18:16:50;98655.22;;;17.05;46.80
66762;BME280;53672;48.176;16.338;2023-03-23T18:21:51;98652.25;;;16.98;47.13
66762;BME280;53672;48.176;16.338;2023-03-23T18:26:52;98662.38;;;16.89;47.56
66762;BME280;53672;48.176;16.338;2023-03-23T18:31:54;98673.94;;;16.86;47.89
66762;BME280;53672;48.176;16.338;2023-03-23T18:36:57;98673.69;;;16.79;48.38
66762;BME280;53672;48.176;16.338;2023-03-23T18:41:59;98670.50;;;16.77;48.42
66762;BME280;53672;48.176;16.338;2023-03-23T18:47:01;98671.16;;;16.74;48.60
66762;BME280;53672;48.176;16.338;2023-03-23T18:52:03;98680.50;;;16.64;48.83
66762;BME280;53672;48.176;16.338;2023-03-23T18:57:05;98680.41;;;16.61;49.16
66762;BME280;53672;48.176;16.338;2023-03-23T19:02:08;98675.63;;;16.49;49.42
66762;BME280;53672;48.176;16.338;2023-03-23T19:07:11;98680.50;;;16.35;49.84
66762;BME280;53672;48.176;16.338;2023-03-23T19:12:13;98683.00;;;16.19;50.33
66762;BME280;53672;48.176;16.338;2023-03-23T19:17:16;98677.31;;;16.04;50.78
66762;BME280;53672;48.176;16.338;2023-03-23T19:22:17;98677.53;;;15.90;51.72
66762;BME280;53672;48.176;16.338;2023-03-23T19:27:18;98671.00;;;15.83;51.86
66762;BME280;53672;48.176;16.338;2023-03-23T19:32:23;98676.03;;;15.63;52.34
66762;BME280;53672;48.176;16.338;2023-03-23T19:37:24;98690.59;;;15.42;52.53
66762;BME280;53672;48.176;16.338;2023-03-23T19:42:25;98683.59;;;15.23;53.14
66762;BME280;53672;48.176;16.338;2023-03-23T19:47:28;98686.16;;;15.11;53.43
66762;BME280;53672;48.176;16.338;2023-03-23T19:52:31;98693.97;;;15.04;53.42
66762;BME280;53672;48.176;16.338;2023-03-23T19:57:32;98690.94;;;14.97;53.13
66762;BME280;53672;48.176;16.338;2023-03-23T20:02:34;98687.28;;;14.93;52.97
66762;BME280;53672;48.176;16.338;2023-03-23T20:07:36;98685.22;;;14.99;53.95
66762;BME280;53672;48.176;16.338;2023-03-23T20:12:37;98684.38;;;15.07;54.02
66762;BME280;53672;48.176;16.338;2023-03-23T20:17:40;98686.81;;;15.08;53.61
66762;BME280;53672;48.176;16.338;2023-03-23T20:22:41;98692.06;;;15.05;52.84
66762;BME280;53672;48.176;16.338;2023-03-23T20:27:43;98687.28;;;15.02;52.05
66762;BME280;53672;48.176;16.338;2023-03-23T20:32:45;98698.13;;;14.93;52.93
66762;BME280;53672;48.176;16.338;2023-03-23T20:37:47;98697.03;;;14.86;52.57
66762;BME280;53672;48.176;16.338;2023-03-23T20:42:48;98703.09;;;14.83;52.75
66762;BME280;53672;48.176;16.338;2023-03-23T20:47:50;98716.50;;;14.79;52.53
66762;BME280;53672;48.176;16.338;2023-03-23T20:52:51;98726.53;;;14.79;52.56
66762;BME280;53672;48.176;16.338;2023-03-23T20:57:52;98726.03;;;14.77;52.58
66762;BME280;53672;48.176;16.338;2023-03-23T21:02:55;98725.56;;;14.75;52.95
66762;BME280;53672;48.176;16.338;2023-03-23T21:07:56;98723.50;;;14.71;52.99
66762;BME280;53672;48.176;16.338;2023-03-23T21:12:57;98710.56;;;14.68;53.13
66762;BME280;53672;48.176;16.338;2023-03-23T21:18:00;98703.53;;;14.76;52.64
66762;BME280;53672;48.176;16.338;2023-03-23T21:23:01;98698.28;;;14.80;52.57
66762;BME280;53672;48.176;16.338;2023-03-23T21:28:02;98701.00;;;14.80;52.83
66762;BME280;53672;48.176;16.338;2023-03-23T21:33:04;98705.66;;;14.79;52.74
66762;BME280;53672;48.176;16.338;2023-03-23T21:38:05;98720.31;;;14.78;52.69
66762;BME280;53672;48.176;16.338;2023-03-23T21:43:05;98711.53;;;14.81;52.92
66762;BME280;53672;48.176;16.338;2023-03-23T21:48:07;98717.09;;;14.76;53.27
66762;BME280;53672;48.176;16.338;2023-03-23T21:53:08;98715.34;;;14.80;54.68
66762;BME280;53672;48.176;16.338;2023-03-23T21:58:09;98720.63;;;14.77;55.52
66762;BME280;53672;48.176;16.338;2023-03-23T22:03:11;98714.69;;;14.66;55.04
66762;BME280;53672;48.176;16.338;2023-03-23T22:08:11;98707.84;;;14.60;55.07
66762;BME280;53672;48.176;16.338;2023-03-23T22:13:12;98707.84;;;14.60;55.02
66762;BME280;53672;48.176;16.338;2023-03-23T22:18:14;98700.97;;;14.62;55.00
66762;BME280;53672;48.176;16.338;2023-03-23T22:23:14;98693.97;;;14.61;55.86
66762;BME280;53672;48.176;16.338;2023-03-23T22:28:16;98688.69;;;14.56;55.73
66762;BME280;53672;48.176;16.338;2023-03-23T22:33:18;98675.13;;;14.48;55.24
66762;BME280;53672;48.176;16.338;2023-03-23T22:38:18;98673.81;;;14.37;55.58
66762;BME280;53672;48.176;16.338;2023-03-23T22:43:19;98670.44;;;14.31;56.50
66762;BME280;53672;48.176;16.338;2023-03-23T22:48:22;98659.25;;;14.33;55.97
66762;BME280;53672;48.176;16.338;2023-03-23T22:53:23;98667.72;;;14.31;55.90
66762;BME280;53672;48.176;16.338;2023-03-23T22:58:25;98665.31;;;14.30;55.42
66762;BME280;53672;48.176;16.338;2023-03-23T23:03:28;98670.91;;;14.25;56.19
66762;BME280;53672;48.176;16.338;2023-03-23T23:08:29;98669.59;;;14.22;57.54
66762;BME280;53672;48.176;16.338;2023-03-23T23:13:30;98661.28;;;14.10;59.39
66762;BME280;53672;48.176;16.338;2023-03-23T23:18:33;98655.19;;;14.04;60.15
66762;BME280;53672;48.176;16.338;2023-03-23T23:23:34;98651.03;;;13.90;60.66
66762;BME280;53672;48.176;16.338;2023-03-23T23:28:35;98655.22;;;13.65;60.99
66762;BME280;53672;48.176;16.338;2023-03-23T23:33:37;98656.03;;;13.65;60.95
66762;BME280;53672;48.176;16.338;2023-03-23T23:38:37;98647.84;;;13.57;61.23
66762;BME280;53672;48.176;16.338;2023-03-23T23:43:38;98644.94;;;13.45;61.72
66762;BME280;53672;48.176;16.338;2023-03-23T23:48:40;98654.56;;;13.29;62.24
66762;BME280;53672;48.176;16.338;2023-03-23T23:53:40;98652.88;;;13.19;61.77
66762;BME280;53672;48.176;16.338;2023-03-23T23:58:41;98653.53;;;13.02;62.41
